createdAt,value
2017-12-20T00:00:06.402Z,68.10
2017-12-20T00:02:35.202Z,68.10
2017-12-20T00:05:04.265Z,68.10
2017-12-20T00:07:32.567Z,68.00
2017-12-20T00:10:00.869Z,68.10
2017-12-20T00:12:29.173Z,68.10
2017-12-20T00:14:57.444Z,68.20
2017-12-20T00:17:26.020Z,68.20
2017-12-20T00:19:54.291Z,68.30
2017-12-20T00:22:22.560Z,68.20
2017-12-20T00:24:50.857Z,68.10
2017-12-20T00:27:19.143Z,68.20
2017-12-20T00:29:54.673Z,68.10
2017-12-20T00:32:22.954Z,68.20
2017-12-20T00:34:50.972Z,68.10
2017-12-20T00:37:19.026Z,68.10
2017-12-20T00:39:47.078Z,68.00
2017-12-20T00:42:15.369Z,68.10
2017-12-20T00:44:44.414Z,68.30
2017-12-20T00:47:13.021Z,68.30
2017-12-20T00:49:41.299Z,68.30
2017-12-20T00:52:09.566Z,68.10
2017-12-20T00:54:37.859Z,67.90
2017-12-20T00:57:06.125Z,68.00
2017-12-20T00:59:34.433Z,68.00
2017-12-20T01:02:02.718Z,68.10
2017-12-20T01:04:32.099Z,68.30
2017-12-20T01:07:00.358Z,68.30
2017-12-20T01:09:28.649Z,68.30
2017-12-20T01:11:56.976Z,68.20
2017-12-20T01:14:25.262Z,68.20
2017-12-20T01:16:53.597Z,68.30
2017-12-20T01:19:21.852Z,68.30
2017-12-20T01:21:50.456Z,68.30
2017-12-20T01:24:18.732Z,68.80
2017-12-20T01:26:47.006Z,68.30
2017-12-20T01:29:15.277Z,68.40
2017-12-20T01:31:43.561Z,68.40
2017-12-20T01:34:11.846Z,68.40
2017-12-20T01:36:40.142Z,68.30
2017-12-20T01:39:09.503Z,68.50
2017-12-20T01:41:37.776Z,68.50
2017-12-20T01:44:06.917Z,68.50
2017-12-20T01:46:35.196Z,68.50
2017-12-20T01:49:04.289Z,68.50
2017-12-20T01:51:33.380Z,68.60
2017-12-20T01:54:01.646Z,68.40
2017-12-20T01:56:29.947Z,68.50
2017-12-20T01:58:58.226Z,68.30
2017-12-20T02:01:27.596Z,68.10
2017-12-20T02:03:55.861Z,68.00
2017-12-20T02:06:24.136Z,67.90
2017-12-20T02:08:52.426Z,67.80
2017-12-20T02:11:20.705Z,67.90
2017-12-20T02:13:49.013Z,67.80
2017-12-20T02:16:18.044Z,68.00
2017-12-20T02:18:46.648Z,68.00
2017-12-20T02:21:14.908Z,68.10
2017-12-20T02:23:43.263Z,68.30
2017-12-20T02:26:12.308Z,68.40
2017-12-20T02:28:40.582Z,68.30
2017-12-20T02:31:08.891Z,68.30
2017-12-20T02:33:37.166Z,68.30
2017-12-20T02:36:05.476Z,68.30
2017-12-20T02:38:39.525Z,68.30
2017-12-20T02:41:08.625Z,68.30
2017-12-20T02:43:36.896Z,68.30
2017-12-20T02:46:05.171Z,68.30
2017-12-20T02:48:33.506Z,68.30
2017-12-20T02:51:01.807Z,68.30
2017-12-20T02:53:30.095Z,68.20
2017-12-20T02:55:58.497Z,68.10
2017-12-20T02:58:26.803Z,68.10
2017-12-20T03:00:55.078Z,68.00
2017-12-20T03:03:23.378Z,68.40
2017-12-20T03:05:52.430Z,67.90
2017-12-20T03:08:20.714Z,67.80
2017-12-20T03:10:49.012Z,67.70
2017-12-20T03:13:17.283Z,67.60
2017-12-20T03:15:45.868Z,67.40
2017-12-20T03:18:14.137Z,67.50
2017-12-20T03:20:42.426Z,67.60
2017-12-20T03:23:14.349Z,67.60
2017-12-20T03:25:43.391Z,67.80
2017-12-20T03:28:11.696Z,67.80
2017-12-20T03:30:40.050Z,67.90
2017-12-20T03:33:08.713Z,68.00
2017-12-20T03:35:36.992Z,68.10
2017-12-20T03:38:05.275Z,68.10
2017-12-20T03:40:33.565Z,68.30
2017-12-20T03:43:01.839Z,68.30
2017-12-20T03:45:30.137Z,68.40
2017-12-20T03:47:59.190Z,68.40
2017-12-20T03:50:27.756Z,68.40
2017-12-20T03:52:56.091Z,68.40
2017-12-20T03:55:25.146Z,68.40
2017-12-20T03:57:53.454Z,68.50
2017-12-20T04:00:21.748Z,68.20
2017-12-20T04:02:50.836Z,68.00
2017-12-20T04:05:19.883Z,68.00
2017-12-20T04:07:48.485Z,68.10
2017-12-20T04:10:16.757Z,68.20
2017-12-20T04:12:45.030Z,68.30
2017-12-20T04:15:13.337Z,68.40
2017-12-20T04:17:41.622Z,69.20
2017-12-20T04:20:10.708Z,68.60
2017-12-20T04:22:39.052Z,69.30
2017-12-20T04:25:07.415Z,68.50
2017-12-20T04:27:35.686Z,68.70
2017-12-20T04:30:04.372Z,68.70
2017-12-20T04:32:32.646Z,68.70
2017-12-20T04:35:00.957Z,68.70
2017-12-20T04:37:29.256Z,68.70
2017-12-20T04:39:57.530Z,68.70
2017-12-20T04:42:25.816Z,68.80
2017-12-20T04:44:54.093Z,68.80
2017-12-20T04:47:22.394Z,68.80
2017-12-20T04:49:51.460Z,69.00
2017-12-20T04:52:20.081Z,69.00
2017-12-20T04:54:49.140Z,69.10
2017-12-20T04:57:17.476Z,69.10
2017-12-20T04:59:45.783Z,69.20
2017-12-20T05:02:14.060Z,69.30
2017-12-20T05:04:42.672Z,69.30
2017-12-20T05:07:10.922Z,70.10
2017-12-20T05:09:39.606Z,69.40
2017-12-20T05:12:07.883Z,69.40
2017-12-20T05:14:36.158Z,69.50
2017-12-20T05:17:04.450Z,69.60
2017-12-20T05:19:32.719Z,69.70
2017-12-20T05:22:01.023Z,69.80
2017-12-20T05:24:29.292Z,69.80
2017-12-20T05:26:57.616Z,69.90
2017-12-20T05:29:26.642Z,70.10
2017-12-20T05:31:55.246Z,70.70
2017-12-20T05:34:23.504Z,70.00
2017-12-20T05:36:52.796Z,70.10
2017-12-20T05:39:21.961Z,70.20
2017-12-20T05:41:51.033Z,70.20
2017-12-20T05:44:19.333Z,70.20
2017-12-20T05:46:48.366Z,70.00
2017-12-20T05:49:16.674Z,69.90
2017-12-20T05:51:44.952Z,70.00
2017-12-20T05:54:13.530Z,70.00
2017-12-20T05:56:41.806Z,70.00
2017-12-20T05:59:10.080Z,70.00
2017-12-20T06:01:39.144Z,70.00
2017-12-20T06:04:07.429Z,70.00
2017-12-20T06:06:35.733Z,70.00
2017-12-20T06:09:04.004Z,70.00
2017-12-20T06:11:32.632Z,70.10
2017-12-20T06:14:02.584Z,70.10
2017-12-20T06:16:30.854Z,70.00
2017-12-20T06:18:59.160Z,70.00
2017-12-20T06:21:27.456Z,70.20
2017-12-20T06:23:55.760Z,70.30
2017-12-20T06:26:28.465Z,70.20
2017-12-20T06:28:57.046Z,70.10
2017-12-20T06:31:25.338Z,70.20
2017-12-20T06:33:54.657Z,70.30
2017-12-20T06:36:22.914Z,70.30
2017-12-20T06:38:51.216Z,70.30
2017-12-20T06:41:19.588Z,70.40
2017-12-20T06:43:47.849Z,70.30
2017-12-20T06:46:16.149Z,70.30
2017-12-20T06:48:44.458Z,70.20
2017-12-20T06:51:12.782Z,70.10
2017-12-20T06:53:41.088Z,70.20
2017-12-20T06:56:10.405Z,70.20
2017-12-20T06:58:39.426Z,70.10
2017-12-20T07:01:08.453Z,70.30
2017-12-20T07:03:36.782Z,70.00
2017-12-20T07:06:05.046Z,69.90
2017-12-20T07:08:33.342Z,69.90
2017-12-20T07:11:01.603Z,69.80
2017-12-20T07:13:30.194Z,69.80
2017-12-20T07:15:58.498Z,69.70
2017-12-20T07:18:27.556Z,69.60
2017-12-20T07:20:55.859Z,69.70
2017-12-20T07:23:24.135Z,70.40
2017-12-20T07:25:52.410Z,69.70
2017-12-20T07:28:20.688Z,69.60
2017-12-20T07:30:48.997Z,69.60
2017-12-20T07:33:18.008Z,69.70
2017-12-20T07:35:46.632Z,69.60
2017-12-20T07:38:14.889Z,69.70
2017-12-20T07:40:43.149Z,69.70
2017-12-20T07:43:11.443Z,69.70
2017-12-20T07:45:39.705Z,69.80
2017-12-20T07:48:08.012Z,69.80
2017-12-20T07:50:36.280Z,69.70
2017-12-20T07:53:05.195Z,69.70
2017-12-20T07:55:33.415Z,69.70
2017-12-20T07:58:01.977Z,69.60
2017-12-20T08:00:30.261Z,69.80
2017-12-20T08:02:59.337Z,69.70
2017-12-20T08:05:27.603Z,69.70
2017-12-20T08:07:55.863Z,69.70
2017-12-20T08:10:24.226Z,69.80
2017-12-20T08:12:52.517Z,69.80
2017-12-20T08:15:20.772Z,70.30
2017-12-20T08:17:49.069Z,69.50
2017-12-20T08:20:17.340Z,69.60
2017-12-20T08:22:45.621Z,69.40
2017-12-20T08:25:13.905Z,69.40
2017-12-20T08:27:42.214Z,69.40
2017-12-20T08:30:10.502Z,69.40
2017-12-20T08:32:39.092Z,69.40
2017-12-20T08:35:07.357Z,69.60
2017-12-20T08:37:35.634Z,68.90
2017-12-20T08:40:04.012Z,69.50
2017-12-20T08:42:33.036Z,69.40
2017-12-20T08:45:02.094Z,69.30
2017-12-20T08:47:30.353Z,69.20
2017-12-20T08:49:58.658Z,69.30
2017-12-20T08:52:26.932Z,69.30
2017-12-20T08:54:55.481Z,69.20
2017-12-20T08:57:23.745Z,69.40
2017-12-20T08:59:52.078Z,69.40
2017-12-20T09:02:20.343Z,69.40
2017-12-20T09:04:48.605Z,69.40
2017-12-20T09:07:16.913Z,69.30
2017-12-20T09:09:45.189Z,69.30
2017-12-20T09:12:13.790Z,69.90
2017-12-20T09:14:42.858Z,69.40
2017-12-20T09:17:11.121Z,69.30
2017-12-20T09:19:43.084Z,69.10
2017-12-20T09:22:11.349Z,69.20
2017-12-20T09:24:39.665Z,69.10
2017-12-20T09:27:07.942Z,69.70
2017-12-20T09:29:36.487Z,69.10
2017-12-20T09:32:04.757Z,69.10
2017-12-20T09:34:33.026Z,69.00
2017-12-20T09:37:01.329Z,69.00
2017-12-20T09:39:29.602Z,68.90
2017-12-20T09:41:57.912Z,68.80
2017-12-20T09:44:26.182Z,68.80
2017-12-20T09:46:54.493Z,68.80
2017-12-20T09:49:23.541Z,68.90
2017-12-20T09:51:52.185Z,69.20
2017-12-20T09:54:20.466Z,68.90
2017-12-20T09:56:48.737Z,68.80
2017-12-20T09:59:17.796Z,68.80
2017-12-20T10:01:46.067Z,68.80
2017-12-20T10:04:14.371Z,69.00
2017-12-20T10:06:43.411Z,68.30
2017-12-20T10:09:11.965Z,68.80
2017-12-20T10:11:41.006Z,68.80
2017-12-20T10:14:09.260Z,68.90
2017-12-20T10:16:37.573Z,68.80
2017-12-20T10:19:05.852Z,68.90
2017-12-20T10:21:34.149Z,69.00
2017-12-20T10:24:02.425Z,68.90
2017-12-20T10:26:30.982Z,68.80
2017-12-20T10:28:59.259Z,69.00
2017-12-20T10:31:27.564Z,69.00
2017-12-20T10:33:55.862Z,68.90
2017-12-20T10:36:24.371Z,68.80
2017-12-20T10:38:53.438Z,68.70
2017-12-20T10:41:22.493Z,68.80
2017-12-20T10:43:50.806Z,69.10
2017-12-20T10:46:19.852Z,68.90
2017-12-20T10:48:48.412Z,68.90
2017-12-20T10:51:16.681Z,68.80
2017-12-20T10:53:44.956Z,68.80
2017-12-20T10:56:13.266Z,68.80
2017-12-20T10:58:41.535Z,68.90
2017-12-20T11:01:10.208Z,68.90
2017-12-20T11:03:39.233Z,68.80
2017-12-20T11:06:07.500Z,68.80
2017-12-20T11:08:35.941Z,68.80
2017-12-20T11:11:04.201Z,68.80
2017-12-20T11:13:32.518Z,68.90
2017-12-20T11:16:00.797Z,68.90
2017-12-20T11:18:29.093Z,68.90
2017-12-20T11:20:57.405Z,68.70
2017-12-20T11:23:25.682Z,68.50
2017-12-20T11:25:53.989Z,68.50
2017-12-20T11:28:23.052Z,68.40
2017-12-20T11:30:51.352Z,68.50
2017-12-20T11:33:20.399Z,68.40
2017-12-20T11:35:49.005Z,68.40
2017-12-20T11:38:17.281Z,68.40
2017-12-20T11:40:45.558Z,68.30
2017-12-20T11:43:13.854Z,68.00
2017-12-20T11:45:42.198Z,68.10
2017-12-20T11:48:10.485Z,68.30
2017-12-20T11:50:38.769Z,68.40
2017-12-20T11:53:07.325Z,68.30
2017-12-20T11:55:35.611Z,68.20
2017-12-20T11:58:03.884Z,68.20
2017-12-20T12:00:32.180Z,68.40
2017-12-20T12:03:00.461Z,70.50
2017-12-20T12:05:28.763Z,71.10
2017-12-20T12:07:57.029Z,68.70
2017-12-20T12:10:25.520Z,66.90
2017-12-20T12:12:53.792Z,64.80
2017-12-20T12:15:22.073Z,63.10
2017-12-20T12:17:50.379Z,61.90
2017-12-20T12:20:19.418Z,59.40
2017-12-20T12:22:47.716Z,59.30
2017-12-20T12:25:16.009Z,57.90
2017-12-20T12:27:45.057Z,56.60
2017-12-20T12:30:13.371Z,56.50
2017-12-20T12:32:41.658Z,55.30
2017-12-20T12:35:09.970Z,53.50
2017-12-20T12:37:38.286Z,52.40
2017-12-20T12:40:06.584Z,51.60
2017-12-20T12:42:34.858Z,51.20
2017-12-20T12:45:04.214Z,51.20
2017-12-20T12:47:32.502Z,51.50
2017-12-20T12:50:00.804Z,51.90
2017-12-20T12:52:29.089Z,52.20
2017-12-20T12:54:57.394Z,52.70
2017-12-20T12:57:25.712Z,53.10
2017-12-20T12:59:54.055Z,53.50
2017-12-20T13:02:23.390Z,54.30
2017-12-20T13:04:51.671Z,54.20
2017-12-20T13:07:19.946Z,55.50
2017-12-20T13:09:48.358Z,56.00
2017-12-20T13:12:16.967Z,56.40
2017-12-20T13:14:45.692Z,56.80
2017-12-20T13:17:13.973Z,57.00
2017-12-20T13:19:42.250Z,57.30
2017-12-20T13:22:16.567Z,57.60
2017-12-20T13:24:44.825Z,57.80
2017-12-20T13:27:13.126Z,58.00
2017-12-20T13:29:41.417Z,58.20
2017-12-20T13:32:11.303Z,58.30
2017-12-20T13:34:40.358Z,58.50
2017-12-20T13:37:08.771Z,58.50
2017-12-20T13:39:52.787Z,58.20
2017-12-20T13:42:21.061Z,58.60
2017-12-20T13:44:53.292Z,58.60
2017-12-20T13:47:21.677Z,58.70
2017-12-20T13:49:50.700Z,58.90
2017-12-20T13:52:18.986Z,58.90
2017-12-20T13:54:47.606Z,59.00
2017-12-20T13:57:16.662Z,59.10
2017-12-20T13:59:44.965Z,59.10
2017-12-20T14:02:13.258Z,59.10
2017-12-20T14:04:42.300Z,59.20
2017-12-20T14:07:10.627Z,59.20
2017-12-20T14:09:39.757Z,59.30
2017-12-20T14:12:08.507Z,59.30
2017-12-20T14:14:36.830Z,59.40
2017-12-20T14:17:05.972Z,59.50
2017-12-20T14:19:35.069Z,59.50
2017-12-20T14:22:03.365Z,59.50
2017-12-20T14:24:32.881Z,59.60
2017-12-20T14:27:01.929Z,59.60
2017-12-20T14:29:30.222Z,59.60
2017-12-20T14:31:58.514Z,59.60
2017-12-20T14:34:26.842Z,59.60
2017-12-20T14:36:55.151Z,59.60
2017-12-20T14:39:24.459Z,59.60
2017-12-20T14:41:53.352Z,59.70
2017-12-20T14:44:21.821Z,59.70
2017-12-20T14:46:50.098Z,59.70
2017-12-20T14:49:18.441Z,59.70
2017-12-20T14:51:46.718Z,59.70
2017-12-20T14:54:15.033Z,59.80
2017-12-20T14:56:43.314Z,59.90
2017-12-20T14:59:11.649Z,59.80
2017-12-20T15:01:39.930Z,59.80
2017-12-20T15:04:08.221Z,59.90
2017-12-20T15:06:36.516Z,60.00
2017-12-20T15:09:04.791Z,59.90
2017-12-20T15:11:33.183Z,59.90
2017-12-20T15:14:01.445Z,60.00
2017-12-20T15:16:30.008Z,60.10
2017-12-20T15:18:58.300Z,60.80
2017-12-20T15:21:26.575Z,60.00
2017-12-20T15:23:54.898Z,60.00
2017-12-20T15:26:23.207Z,60.00
2017-12-20T15:28:51.618Z,60.00
2017-12-20T15:31:19.865Z,60.10
2017-12-20T15:33:48.179Z,60.30
2017-12-20T15:36:16.501Z,60.50
2017-12-20T15:38:45.895Z,60.20
2017-12-20T15:41:14.270Z,60.90
2017-12-20T15:43:42.595Z,60.80
2017-12-20T15:46:11.120Z,61.00
2017-12-20T15:48:40.466Z,61.10
2017-12-20T15:51:08.786Z,61.10
2017-12-20T15:53:37.272Z,61.20
2017-12-20T15:56:05.867Z,61.40
2017-12-20T15:58:37.011Z,61.40
2017-12-20T16:01:07.079Z,61.60
2017-12-20T16:03:37.887Z,62.50
2017-12-20T16:06:06.686Z,62.50
2017-12-20T16:08:35.089Z,62.40
2017-12-20T16:11:03.536Z,62.40
2017-12-20T16:13:31.840Z,62.40
2017-12-20T16:16:00.907Z,62.70
2017-12-20T16:18:29.263Z,62.60
2017-12-20T16:20:58.288Z,62.80
2017-12-20T16:23:26.873Z,62.90
2017-12-20T16:25:55.247Z,62.90
2017-12-20T16:28:23.510Z,62.90
2017-12-20T16:30:51.817Z,63.00
2017-12-20T16:33:20.868Z,63.00
2017-12-20T16:35:49.188Z,63.00
2017-12-20T16:38:17.499Z,63.00
2017-12-20T16:40:45.819Z,63.80
2017-12-20T16:43:14.090Z,63.10
2017-12-20T16:45:43.626Z,63.30
2017-12-20T16:48:11.938Z,63.30
2017-12-20T16:50:41.029Z,63.50
2017-12-20T16:53:10.346Z,63.40
2017-12-20T16:55:38.641Z,63.50
2017-12-20T16:58:09.145Z,63.70
2017-12-20T17:00:38.429Z,63.80
2017-12-20T17:03:07.557Z,63.90
2017-12-20T17:08:32.922Z,64.00
2017-12-20T17:11:01.782Z,63.90
2017-12-20T17:13:30.171Z,63.80
2017-12-20T17:15:58.476Z,63.90
2017-12-20T17:18:27.127Z,63.90
2017-12-20T17:20:55.438Z,63.80
2017-12-20T17:23:23.752Z,64.00
2017-12-20T17:25:52.834Z,64.30
2017-12-20T17:28:26.290Z,64.20
2017-12-20T17:30:55.832Z,64.50
2017-12-20T17:33:24.243Z,64.50
2017-12-20T17:35:53.305Z,64.80
2017-12-20T17:38:21.598Z,64.80
2017-12-20T17:40:50.693Z,65.00
2017-12-20T17:43:18.998Z,65.00
2017-12-20T17:45:47.313Z,65.00
2017-12-20T17:48:16.033Z,65.00
2017-12-20T17:50:44.316Z,65.10
2017-12-20T17:53:12.637Z,65.10
2017-12-20T17:55:40.960Z,65.10
2017-12-20T17:58:09.247Z,65.20
2017-12-20T18:00:37.571Z,64.90
2017-12-20T18:03:05.828Z,64.90
2017-12-20T18:05:34.380Z,64.80
2017-12-20T18:08:02.625Z,64.80
2017-12-20T18:10:30.897Z,64.70
2017-12-20T18:12:59.857Z,64.70
2017-12-20T18:15:29.202Z,64.60
2017-12-20T18:17:57.469Z,64.60
2017-12-20T18:20:25.749Z,64.60
2017-12-20T18:22:54.295Z,64.70
2017-12-20T18:25:25.237Z,64.70
2017-12-20T18:27:54.611Z,64.90
2017-12-20T18:30:22.869Z,64.80
2017-12-20T18:32:51.141Z,64.70
2017-12-20T18:35:19.459Z,64.80
2017-12-20T18:37:47.747Z,64.90
2017-12-20T18:40:16.816Z,65.00
2017-12-20T18:42:45.092Z,65.10
2017-12-20T18:45:13.685Z,65.00
2017-12-20T18:47:41.976Z,65.00
2017-12-20T18:50:10.243Z,65.00
2017-12-20T18:52:38.557Z,65.00
2017-12-20T18:55:06.851Z,65.90
2017-12-20T18:57:35.183Z,65.20
2017-12-20T19:00:03.676Z,65.30
2017-12-20T19:02:31.974Z,65.40
2017-12-20T19:05:00.285Z,65.50
2017-12-20T19:07:28.903Z,65.60
2017-12-20T19:09:57.868Z,65.60
2017-12-20T19:12:27.080Z,65.80
2017-12-20T19:14:55.438Z,65.70
2017-12-20T19:17:23.705Z,65.70
2017-12-20T19:19:52.048Z,65.80
2017-12-20T19:22:20.368Z,66.50
2017-12-20T19:24:48.981Z,65.80
2017-12-20T19:27:17.279Z,65.80
2017-12-20T19:29:45.543Z,65.80
2017-12-20T19:32:13.860Z,66.30
2017-12-20T19:34:42.144Z,65.70
2017-12-20T19:37:10.451Z,65.80
2017-12-20T19:39:38.767Z,65.80
2017-12-20T19:42:07.362Z,65.90
2017-12-20T19:44:36.389Z,66.20
2017-12-20T19:47:04.661Z,66.00
2017-12-20T19:49:32.976Z,66.00
2017-12-20T19:52:01.264Z,66.00
2017-12-20T19:54:29.574Z,66.10
2017-12-20T19:56:58.704Z,66.10
2017-12-20T19:59:27.421Z,66.70
2017-12-20T20:01:57.151Z,66.10
2017-12-20T20:04:25.587Z,66.50
2017-12-20T20:06:54.419Z,66.70
2017-12-20T20:09:23.382Z,66.70
2017-12-20T20:11:56.763Z,66.60
2017-12-20T20:14:26.906Z,66.00
2017-12-20T20:16:56.102Z,66.60
2017-12-20T20:19:25.462Z,66.80
2017-12-20T20:21:54.582Z,66.60
2017-12-20T20:24:24.407Z,66.90
2017-12-20T20:26:55.423Z,66.00
2017-12-20T20:29:24.193Z,66.50
2017-12-20T20:31:52.801Z,66.60
2017-12-20T20:34:21.836Z,66.60
2017-12-20T20:36:57.054Z,66.60
2017-12-20T20:39:27.571Z,66.50
2017-12-20T20:41:58.234Z,66.10
2017-12-20T20:44:27.383Z,66.20
2017-12-20T20:46:56.939Z,66.50
2017-12-20T20:49:29.762Z,66.80
2017-12-20T20:52:03.816Z,66.70
2017-12-20T20:54:32.775Z,66.60
2017-12-20T20:57:03.559Z,66.80
2017-12-20T20:59:33.928Z,66.30
2017-12-20T21:02:02.753Z,66.90
2017-12-20T21:04:31.846Z,66.60
2017-12-20T21:07:01.332Z,66.80
2017-12-20T21:09:30.111Z,66.90
2017-12-20T21:12:01.198Z,67.00
2017-12-20T21:14:36.082Z,67.00
2017-12-20T21:17:04.962Z,66.80
2017-12-20T21:19:34.862Z,67.00
2017-12-20T21:22:04.932Z,66.30
2017-12-20T21:24:35.589Z,66.70
2017-12-20T21:27:13.672Z,66.90
2017-12-20T21:29:43.130Z,66.60
2017-12-20T21:32:12.107Z,66.60
2017-12-20T21:34:41.909Z,66.90
2017-12-20T21:37:11.117Z,66.90
2017-12-20T21:39:40.396Z,66.70
2017-12-20T21:42:09.259Z,66.80
2017-12-20T21:44:41.835Z,66.70
2017-12-20T21:47:12.566Z,66.70
2017-12-20T21:49:41.470Z,66.80
2017-12-20T21:52:10.642Z,67.00
2017-12-20T21:54:39.273Z,66.50
2017-12-20T21:57:08.203Z,66.70
2017-12-20T21:59:37.697Z,66.70
2017-12-20T22:02:09.194Z,67.00
2017-12-20T22:04:37.811Z,66.30
2017-12-20T22:07:06.609Z,66.70
2017-12-20T22:09:35.355Z,66.70
2017-12-20T22:12:11.630Z,66.50
2017-12-20T22:14:41.675Z,66.20
2017-12-20T22:17:11.490Z,66.80
2017-12-20T22:19:40.624Z,66.40
2017-12-20T22:22:10.224Z,66.30
2017-12-20T22:24:38.996Z,66.40
2017-12-20T22:27:08.318Z,66.60
2017-12-20T22:29:39.089Z,66.70
2017-12-20T22:32:09.656Z,66.10
2017-12-20T22:34:38.377Z,66.70
2017-12-20T22:37:07.980Z,66.30
2017-12-20T22:39:36.824Z,66.10
2017-12-20T22:42:05.780Z,66.60
2017-12-20T22:44:35.324Z,65.90
2017-12-20T22:47:04.222Z,66.30
2017-12-20T22:49:33.055Z,66.60
2017-12-20T22:52:01.673Z,66.50
2017-12-20T22:54:30.429Z,66.50
2017-12-20T22:56:59.996Z,66.70
2017-12-20T22:59:29.029Z,66.20
2017-12-20T23:01:58.591Z,66.00
2017-12-20T23:04:27.170Z,66.50
2017-12-20T23:06:55.829Z,66.60
2017-12-20T23:09:24.236Z,66.70
2017-12-20T23:11:52.666Z,66.70
2017-12-20T23:14:22.259Z,66.40
2017-12-20T23:16:55.224Z,66.30
2017-12-20T23:19:24.029Z,66.10
2017-12-20T23:21:52.673Z,66.70
2017-12-20T23:24:21.260Z,66.90
2017-12-20T23:26:49.938Z,66.80
2017-12-20T23:29:19.451Z,66.50
2017-12-20T23:31:49.230Z,66.60
2017-12-20T23:34:18.613Z,66.30
2017-12-20T23:36:47.405Z,66.40
2017-12-20T23:39:16.386Z,66.30
2017-12-20T23:41:45.126Z,66.30
2017-12-20T23:44:13.659Z,66.00
2017-12-20T23:46:46.654Z,66.60
2017-12-20T23:49:15.007Z,65.90
2017-12-20T23:51:43.308Z,66.30
2017-12-20T23:54:11.648Z,66.30
2017-12-20T23:56:39.948Z,66.20
2017-12-20T23:59:08.248Z,66.10
